Time;durP1;ratioP1;P1;durP2;ratioP2;P2;SDS_P1;SDS_P2;PMS_P1;PMS_P2;Temp;Humidity;BMP_temperature;BMP_pressure;BME280_temperature;BME280_humidity;BME280_pressure;Samples;Min_cycle;Max_cycle;Signal;HPM_P1;HPM_P2
2023/12/11 00:05:20;;;;;;;14.57;4.95;;;;;;;-5.75;58.90;100565.47;6226694;23;20040;-87
2023/12/11 00:08:37;;;;;;;8.10;3.85;;;;;;;-5.41;59.50;100622.03;6174421;23;20451;-89
2023/12/11 00:11:28;;;;;;;7.78;3.78;;;;;;;-5.31;59.42;100620.81;6175778;23;20456;-89
2023/12/11 00:14:03;;;;;;;12.85;5.20;;;;;;;-5.79;59.25;100556.19;6149959;23;20020;-85
2023/12/11 00:16:29;;;;;;;15.90;4.47;;;;;;;-5.95;59.60;100577.63;6227731;23;20028;-89
2023/12/11 00:31:39;;;;;;;11.45;4.32;;;;;;;-5.39;59.73;100639.53;6153445;23;20031;-89
2023/12/11 00:34:05;;;;;;;11.68;4.35;;;;;;;-5.33;59.61;100638.81;6175153;23;20052;-87
2023/12/11 00:36:42;;;;;;;11.23;4.40;;;;;;;-5.57;58.84;100557.19;6200456;23;20024;-89
2023/12/11 00:39:15;;;;;;;12.55;5.30;;;;;;;-5.08;58.59;100612.81;6173144;23;20043;-91
2023/12/11 00:45:56;;;;;;;19.40;4.35;;;;;;;-5.88;58.79;100497.84;6226286;23;20036;-88
2023/12/11 00:49:13;;;;;;;12.35;4.00;;;;;;;-5.34;59.25;100605.16;6174928;23;20069;-89
2023/12/11 07:42:52;;;;;;;8.55;4.57;;;;;;;-4.39;61.22;100462.38;6235638;22;20028;-89
2023/12/11 07:46:16;;;;;;;10.55;4.88;;;;;;;-4.08;61.59;100494.97;6214068;23;20004;-89
2023/12/11 08:00:50;;;;;;;7.82;4.20;;;;;;;-3.87;60.47;100480.00;6231860;22;20088;-88
2023/12/11 08:06:33;;;;;;;8.18;4.32;;;;;;;-4.11;60.34;100430.41;6171048;23;20052;-88
2023/12/11 08:29:02;;;;;;;10.05;4.53;;;;;;;-3.76;60.42;100447.41;6230209;22;20033;-89
2023/12/11 08:46:24;;;;;;;8.48;4.43;;;;;;;-4.29;60.94;100375.63;6234944;22;20036;-87
2023/12/11 08:48:59;;;;;;;13.50;5.38;;;;;;;-3.82;60.62;100432.97;6211816;23;20023;-88
2023/12/11 08:51:37;;;;;;;14.38;5.57;;;;;;;-4.04;60.68;100376.09;6165448;23;20048;-90
2023/12/11 08:54:43;;;;;;;14.00;5.70;;;;;;;-4.28;60.47;100344.41;6192915;23;20096;-91
2023/12/11 08:57:09;;;;;;;25.33;4.90;;;;;;;-4.07;61.01;100424.53;6158528;23;20055;-88
2023/12/11 08:59:37;;;;;;;16.80;5.13;;;;;;;-4.24;61.26;100393.72;6186038;23;20038;-89
2023/12/11 09:02:06;;;;;;;13.80;6.15;;;;;;;-4.33;62.11;100401.06;6185790;23;20019;-86
2023/12/11 09:04:35;;;;;;;13.48;5.32;;;;;;;-4.45;61.94;100354.50;6209263;23;20066;-89
2023/12/11 09:07:02;;;;;;;9.10;4.45;;;;;;;-4.50;61.97;100360.44;6185576;23;20016;-88
2023/12/11 09:13:09;;;;;;;12.93;4.70;;;;;;;-4.05;61.29;100393.09;6208663;23;20013;-89
2023/12/11 09:15:35;;;;;;;13.93;5.25;;;;;;;-4.01;61.42;100404.22;6206857;23;20051;-88
2023/12/11 09:18:01;;;;;;;14.60;5.30;;;;;;;-4.01;61.40;100382.88;6151914;23;20092;-89
2023/12/11 09:20:43;;;;;;;12.95;5.70;;;;;;;-4.00;61.43;100391.72;6148223;23;20018;-89
2023/12/11 09:23:10;;;;;;;11.15;4.75;;;;;;;-4.18;61.50;100376.94;6145507;23;20052;-85
2023/12/11 09:25:38;;;;;;;17.35;4.63;;;;;;;-4.21;62.02;100382.69;6146060;23;20028;-89
2023/12/11 09:28:32;;;;;;;11.63;4.80;;;;;;;-4.16;62.16;100374.13;6150837;23;20081;-86
2023/12/11 09:31:01;;;;;;;20.13;6.10;;;;;;;-4.31;61.76;100347.47;6149042;23;20072;-88
2023/12/11 09:34:08;;;;;;;12.57;4.28;;;;;;;-3.83;61.30;100385.09;6172311;23;20052;-89
2023/12/11 09:36:40;;;;;;;13.32;5.30;;;;;;;-3.98;61.53;100376.31;6127067;23;20030;-89
2023/12/11 09:39:46;;;;;;;14.88;6.00;;;;;;;-3.96;61.47;100374.28;6153112;23;20021;-89
2023/12/11 10:18:15;;;;;;;9.98;4.43;;;;;;;-3.89;61.08;100289.69;6212352;22;20009;-89
2023/12/11 10:21:09;;;;;;;12.25;5.20;;;;;;;-4.02;60.86;100264.53;6218382;23;20020;-89
2023/12/11 10:24:22;;;;;;;14.60;5.70;;;;;;;-4.26;60.78;100232.94;6214541;23;20072;-87
2023/12/11 10:27:26;;;;;;;14.00;4.15;;;;;;;-3.43;60.92;100329.25;6158059;23;20028;-88
2023/12/11 10:30:18;;;;;;;7.60;2.53;;;;;;;-4.28;60.31;100227.78;6178570;23;20037;-88
2023/12/11 10:33:41;;;;;;;11.05;4.93;;;;;;;-3.87;60.85;100333.91;6153581;23;20029;-88
2023/12/11 10:37:08;;;;;;;10.43;4.03;;;;;;;-3.83;61.32;100337.00;6105433;23;20053;-87
2023/12/11 10:52:04;;;;;;;13.98;4.35;;;;;;;-4.45;61.43;100222.94;6207460;23;20017;-90
2023/12/11 10:54:38;;;;;;;13.73;4.80;;;;;;;-3.88;61.40;100286.81;6093886;23;20527;-88
2023/12/11 10:57:17;;;;;;;10.75;4.75;;;;;;;-3.85;61.07;100265.06;6137570;23;20035;-90
2023/12/11 11:00:24;;;;;;;11.05;4.18;;;;;;;-3.57;60.86;100291.75;6236825;23;20075;-89
2023/12/11 11:02:54;;;;;;;10.82;4.53;;;;;;;-3.27;60.69;100312.91;6136297;23;20025;-89
2023/12/11 11:09:40;;;;;;;12.98;3.97;;;;;;;-3.89;60.50;100244.28;6238375;23;20101;-89
2023/12/11 11:12:20;;;;;;;9.77;4.43;;;;;;;-3.74;61.07;100282.41;6209044;23;20020;-87
2023/12/11 11:15:24;;;;;;;10.25;3.90;;;;;;;-3.36;61.22;100306.06;6159547;23;20033;-87
2023/12/11 11:18:11;;;;;;;9.10;3.50;;;;;;;-3.74;61.08;100263.72;6206682;23;20020;-88
2023/12/11 11:20:41;;;;;;;9.70;4.32;;;;;;;-3.64;60.67;100244.63;6186805;23;20084;-88
2023/12/11 11:23:16;;;;;;;8.48;3.60;;;;;;;-3.57;61.50;100312.31;6182089;23;20036;-87
2023/12/11 11:25:55;;;;;;;8.53;3.73;;;;;;;-3.65;62.08;100302.59;6204237;23;20024;-86
2023/12/11 11:28:41;;;;;;;10.43;4.05;;;;;;;-3.67;61.82;100293.97;6131603;23;20085;-86
2023/12/11 11:31:18;;;;;;;6.13;2.55;;;;;;;-4.37;62.63;100215.63;6231842;23;20027;-87
2023/12/11 11:33:58;;;;;;;11.05;3.78;;;;;;;-4.09;62.94;100246.81;6159628;23;20047;-88
2023/12/11 11:36:48;;;;;;;10.55;3.60;;;;;;;-4.30;62.42;100194.31;6154464;23;20107;-87
2023/12/11 11:40:04;;;;;;;11.43;3.60;;;;;;;-3.68;62.32;100291.47;6229204;23;20067;-86
2023/12/11 11:42:35;;;;;;;14.88;3.90;;;;;;;-3.83;62.21;100252.34;6146287;23;20017;-85
2023/12/11 11:45:55;;;;;;;13.52;3.88;;;;;;;-4.08;62.48;100257.28;6138074;23;20076;-87
2023/12/11 11:48:59;;;;;;;9.48;3.63;;;;;;;-4.35;62.74;100229.56;6119502;23;20013;-87
2023/12/11 11:52:17;;;;;;;11.38;3.83;;;;;;;-3.78;62.74;100291.81;6128246;23;20033;-87
2023/12/11 11:54:44;;;;;;;6.15;3.13;;;;;;;-3.99;62.88;100260.66;6110643;23;20025;-86
2023/12/11 11:57:10;;;;;;;8.57;3.50;;;;;;;-4.20;62.67;100215.34;6110178;23;20037;-84
2023/12/11 11:59:45;;;;;;;9.45;4.00;;;;;;;-3.76;62.23;100281.78;6110072;23;20041;-87
2023/12/11 12:08:10;;;;;;;7.90;3.35;;;;;;;-3.74;62.06;100247.69;6084838;23;20022;-88
2023/12/11 12:11:11;;;;;;;7.68;3.88;;;;;;;-3.50;61.87;100289.13;6107434;23;20030;-88
2023/12/11 12:13:43;;;;;;;12.65;3.97;;;;;;;-3.89;62.00;100236.28;6141727;23;20431;-88
2023/12/11 12:16:10;;;;;;;8.45;3.83;;;;;;;-3.51;62.02;100291.97;6143661;23;20025;-90
2023/12/11 12:18:50;;;;;;;10.07;3.92;;;;;;;-3.67;61.24;100243.19;6145559;23;20022;-86
2023/12/11 12:21:32;;;;;;;8.20;3.72;;;;;;;-3.51;61.59;100297.31;6170197;23;20629;-87
2023/12/11 12:24:14;;;;;;;6.70;3.30;;;;;;;-4.29;61.54;100199.44;6120704;23;20025;-87
2023/12/11 12:26:48;;;;;;;9.57;3.97;;;;;;;-3.83;61.83;100260.34;6143977;23;20104;-89
2023/12/11 12:29:24;;;;;;;9.73;3.65;;;;;;;-3.86;61.95;100278.63;6141822;23;20024;-89
2023/12/11 12:31:59;;;;;;;10.55;3.60;;;;;;;-4.00;61.42;100229.63;6133711;23;20003;-89
2023/12/11 12:34:29;;;;;;;7.70;3.67;;;;;;;-3.72;61.43;100288.38;6206715;23;20027;-87
2023/12/11 12:37:14;;;;;;;9.73;3.72;;;;;;;-3.81;61.72;100252.13;6233072;23;20017;-88
2023/12/11 12:39:45;;;;;;;5.72;2.90;;;;;;;-4.16;62.11;100251.28;6184184;23;20020;-86
2023/12/11 12:42:40;;;;;;;11.10;2.77;;;;;;;-3.84;62.58;100303.28;6185773;23;20017;-87
2023/12/11 12:45:10;;;;;;;7.95;3.28;;;;;;;-4.44;63.08;100232.56;6233179;23;20100;-86
2023/12/11 12:48:00;;;;;;;5.35;2.55;;;;;;;-4.08;63.08;100264.47;6207294;23;20525;-90
2023/12/11 12:50:31;;;;;;;8.65;2.95;;;;;;;-3.81;62.53;100298.41;6163835;23;20011;-89
2023/12/11 12:53:44;;;;;;;9.63;2.78;;;;;;;-3.98;62.60;100296.19;6205579;23;20021;-89
2023/12/11 12:56:23;;;;;;;10.18;3.28;;;;;;;-4.12;63.08;100241.88;6235376;23;20024;-88
2023/12/11 12:58:49;;;;;;;8.57;3.53;;;;;;;-3.87;62.87;100287.66;6131003;23;20044;-88
2023/12/11 13:01:22;;;;;;;8.80;2.83;;;;;;;-4.14;62.52;100231.41;6182076;23;20032;-90
2023/12/11 13:04:10;;;;;;;8.30;2.95;;;;;;;-4.34;63.12;100223.25;6139434;23;20044;-88
2023/12/11 13:06:45;;;;;;;9.90;3.28;;;;;;;-3.87;62.70;100264.44;6158225;23;20077;-88
2023/12/11 13:09:31;;;;;;;6.95;3.50;;;;;;;-3.84;62.93;100276.56;6136342;23;20067;-90
2023/12/11 13:12:21;;;;;;;10.55;3.63;;;;;;;-4.15;62.55;100236.91;6178060;23;20044;-88
2023/12/11 13:15:07;;;;;;;13.87;3.23;;;;;;;-4.53;63.39;100171.34;6155401;23;20019;-89
2023/12/11 13:17:36;;;;;;;6.80;3.33;;;;;;;-3.83;62.70;100251.53;6063213;23;20030;-89
2023/12/11 13:20:04;;;;;;;5.22;2.55;;;;;;;-3.80;62.53;100257.28;6039705;23;20039;-86
2023/12/11 14:11:43;;;;;;;6.57;2.55;;;;;;;-4.52;64.67;100175.66;6225098;22;20217;-89
2023/12/11 14:49:51;;;;;;;5.20;2.25;;;;;;;-4.78;66.57;100136.25;6216276;22;20013;-90
2023/12/11 14:53:17;;;;;;;7.30;2.72;;;;;;;-4.78;66.35;100101.59;6221719;22;20035;-92
2023/12/11 15:54:04;;;;;;;7.75;2.63;;;;;;;-3.87;63.71;100194.19;6239172;22;20047;-90
2023/12/11 16:44:06;;;;;;;7.00;2.50;;;;;;;-3.81;64.93;100180.84;6229310;22;20096;-88
2023/12/11 17:02:02;;;;;;;4.47;1.90;;;;;;;-4.10;66.27;100152.53;6267228;22;20253;-88
2023/12/11 17:15:42;;;;;;;2.22;1.52;;;;;;;-4.20;66.87;100138.72;6233991;23;20100;-86
2023/12/11 17:19:20;;;;;;;6.43;2.08;;;;;;;-4.18;66.63;100125.16;6236918;23;20005;-89
2023/12/11 17:30:51;;;;;;;6.32;2.15;;;;;;;-4.37;66.38;100081.31;6243980;22;20007;-89
2023/12/11 18:01:52;;;;;;;4.00;2.20;;;;;;;-4.65;66.14;100042.16;6233356;22;20394;-90
2023/12/11 18:10:45;;;;;;;1.98;1.35;;;;;;;-4.05;64.80;100104.69;6249009;22;20024;-89
2023/12/11 19:34:37;;;;;;;2.65;1.70;;;;;;;-4.08;63.93;100077.56;6223829;22;20024;-89
2023/12/11 19:40:35;;;;;;;2.53;1.60;;;;;;;-4.26;64.16;100073.59;6260946;22;20047;-88
2023/12/11 19:43:03;;;;;;;5.13;1.73;;;;;;;-5.10;64.42;99948.38;6239570;23;20064;-86
2023/12/11 19:45:34;;;;;;;4.57;2.08;;;;;;;-4.36;64.29;100048.28;6208134;23;20493;-88
2023/12/11 19:48:10;;;;;;;6.13;1.70;;;;;;;-4.67;64.27;99998.03;6214621;23;20020;-85
2023/12/11 19:51:00;;;;;;;;;;;;;;;-4.27;64.50;100047.13;6138760;23;20023;-85
2023/12/11 19:53:27;;;;;;;10.82;1.80;;;;;;;-4.44;64.16;100049.25;6175520;23;19916;-87
2023/12/11 19:56:23;;;;;;;5.93;1.58;;;;;;;-4.47;64.02;100065.66;6170209;23;20020;-85
2023/12/11 20:01:40;;;;;;;2.80;1.70;;;;;;;-4.80;63.93;100004.09;6233661;22;20020;-86
2023/12/11 20:14:38;;;;;;;3.85;1.85;;;;;;;-5.17;63.82;99928.00;6240121;22;20055;-85
2023/12/11 21:13:16;;;;;;;4.40;2.25;;;;;;;-3.81;62.92;100035.75;6106854;23;20066;-88
2023/12/11 21:15:43;;;;;;;3.45;1.73;;;;;;;-4.29;63.03;99985.09;6108249;23;20058;-89
2023/12/11 21:19:05;;;;;;;4.95;1.40;;;;;;;-3.89;62.90;100034.09;6088031;23;20022;-88
2023/12/11 21:31:04;;;;;;;12.25;2.83;;;;;;;-3.64;62.68;100036.19;6095596;23;20025;-85
2023/12/11 22:42:38;;;;;;;5.50;2.15;;;;;;;-4.08;64.72;100029.50;6253951;22;20031;-90
2023/12/11 22:45:23;;;;;;;2.75;1.60;;;;;;;-4.11;64.48;100033.41;6147348;23;20021;-91
